createdAt,value
2022-08-08T00:02:30.826Z,16.477051
2022-08-08T00:05:43.555Z,16.497192
2022-08-08T00:08:59.439Z,16.477051
2022-08-08T00:12:24.848Z,16.477051
2022-08-08T00:15:56.192Z,16.497192
2022-08-08T00:19:15.360Z,16.527405
2022-08-08T00:22:40.676Z,16.487122
2022-08-08T00:26:05.976Z,16.497192
2022-08-08T00:29:44.628Z,16.477051
2022-08-08T00:32:56.593Z,16.305847
2022-08-08T00:36:25.710Z,16.144714
2022-08-08T00:41:08.327Z,16.08429
2022-08-08T00:43:19.519Z,15.903015
2022-08-08T00:46:56.322Z,15.741882
2022-08-08T00:50:03.167Z,15.651245
2022-08-08T00:53:29.225Z,15.490112
2022-08-08T00:56:53.777Z,15.349121
2022-08-08T01:00:19.091Z,15.308838
2022-08-08T01:03:57.857Z,15.127563
2022-08-08T01:07:09.722Z,14.976501
2022-08-08T01:10:35.065Z,14.734802
2022-08-08T01:14:00.386Z,14.472961
2022-08-08T01:17:34.889Z,14.241333
2022-08-08T01:20:50.974Z,14.019775
2022-08-08T01:24:16.580Z,13.808289
2022-08-08T01:27:43.775Z,13.747864
2022-08-08T01:31:10.455Z,13.667297
2022-08-08T01:34:32.225Z,13.637085
2022-08-08T01:37:58.930Z,13.596802
2022-08-08T01:41:22.913Z,13.546448
2022-08-08T01:44:50.488Z,13.486023
2022-08-08T01:48:15.159Z,13.44574
2022-08-08T01:52:04.991Z,13.415527
2022-08-08T01:55:18.343Z,13.435669
2022-08-08T01:58:32.137Z,13.486023
2022-08-08T02:02:00.728Z,13.435669
2022-08-08T02:05:20.389Z,13.234253
2022-08-08T02:08:45.670Z,13.264465
2022-08-08T02:12:12.542Z,13.284607
2022-08-08T02:15:38.431Z,13.304749
2022-08-08T02:19:01.134Z,13.284607
2022-08-08T02:22:28.020Z,13.264465
2022-08-08T02:25:51.730Z,13.204041
2022-08-08T02:29:18.893Z,13.19397
2022-08-08T02:32:42.313Z,13.123474
2022-08-08T02:36:07.601Z,13.153687
2022-08-08T02:39:41.404Z,13.19397
2022-08-08T02:43:00.841Z,13.153687
2022-08-08T02:46:23.496Z,13.143616
2022-08-08T02:49:51.590Z,13.153687
2022-08-08T02:53:14.102Z,13.234253
2022-08-08T02:56:39.493Z,13.224182
2022-08-08T03:00:26.379Z,13.19397
2022-08-08T03:03:46.616Z,13.113403
2022-08-08T03:06:55.305Z,13.032837
2022-08-08T03:10:31.888Z,13.07312
2022-08-08T03:15:55.247Z,13.083191
2022-08-08T03:17:11.183Z,13.103333
2022-08-08T03:20:36.473Z,13.083191
2022-08-08T03:24:01.814Z,13.103333
2022-08-08T03:27:27.495Z,13.083191
2022-08-08T03:31:07.721Z,13.153687
2022-08-08T03:34:18.907Z,13.143616
2022-08-08T03:38:00.554Z,13.153687
2022-08-08T03:42:03.873Z,13.173828
2022-08-08T03:44:34.973Z,13.143616
2022-08-08T03:48:00.073Z,13.113403
2022-08-08T03:51:26.650Z,13.103333
2022-08-08T03:54:52.636Z,13.032837
2022-08-08T03:58:32.813Z,13.002625
2022-08-08T04:02:02.544Z,12.932129
2022-08-08T04:05:09.971Z,12.901917
2022-08-08T04:08:32.765Z,12.891846
2022-08-08T04:11:59.323Z,12.851562
2022-08-08T04:15:22.539Z,12.82135
2022-08-08T04:18:48.823Z,12.82135
2022-08-08T04:22:13.662Z,12.851562
2022-08-08T04:25:38.671Z,12.901917
2022-08-08T04:29:03.524Z,12.962341
2022-08-08T04:32:40.244Z,13.103333
2022-08-08T04:35:54.078Z,13.173828
2022-08-08T04:39:48.325Z,13.304749
2022-08-08T04:42:46.958Z,13.385315
2022-08-08T04:46:09.960Z,13.415527
2022-08-08T04:49:58.907Z,13.44574
2022-08-08T04:53:04.907Z,13.536377
2022-08-08T04:56:25.843Z,13.627014
2022-08-08T04:59:51.167Z,13.747864
2022-08-08T05:03:18.621Z,13.999634
2022-08-08T05:06:42.266Z,14.271545
2022-08-08T05:10:07.089Z,14.45282
2022-08-08T05:13:32.327Z,14.573669
2022-08-08T05:17:00.693Z,14.654236
2022-08-08T05:20:24.561Z,14.70459
2022-08-08T05:23:49.517Z,14.775085
2022-08-08T05:27:13.457Z,14.885864
2022-08-08T05:30:38.780Z,14.946289
2022-08-08T05:34:04.058Z,14.976501
2022-08-08T05:37:39.610Z,15.057068
2022-08-08T05:40:57.987Z,15.167847
2022-08-08T05:44:19.968Z,15.248413
2022-08-08T05:47:52.974Z,15.318909
2022-08-08T05:51:13.110Z,15.469971
2022-08-08T05:54:43.185Z,15.721741
2022-08-08T05:58:05.858Z,16.08429
2022-08-08T06:01:50.942Z,16.426697
2022-08-08T06:04:54.755Z,16.84967
2022-08-08T06:08:28.424Z,17.141724
2022-08-08T06:11:45.742Z,17.34314
2022-08-08T06:15:07.512Z,17.59491
2022-08-08T06:18:32.808Z,17.836609
2022-08-08T06:21:58.120Z,17.947388
2022-08-08T06:25:33.101Z,18.168945
2022-08-08T06:28:48.557Z,18.259583
2022-08-08T06:32:14.931Z,18.35022
2022-08-08T06:36:05.229Z,18.471069
2022-08-08T06:39:05.364Z,18.521423
2022-08-08T06:42:29.762Z,18.581848
2022-08-08T06:45:55.070Z,18.622131
2022-08-08T06:49:20.378Z,18.662415
2022-08-08T06:52:47.832Z,18.722839
2022-08-08T06:56:10.999Z,18.763123
2022-08-08T06:59:49.567Z,18.753052
2022-08-08T07:03:01.679Z,18.803406
2022-08-08T07:06:27.085Z,18.813477
2022-08-08T07:09:56.774Z,18.823547
2022-08-08T07:13:17.508Z,18.914185
2022-08-08T07:16:50.121Z,19.125671
2022-08-08T07:20:08.098Z,19.176025
2022-08-08T07:23:57.786Z,19.216309
2022-08-08T07:26:58.694Z,19.216309
2022-08-08T07:30:25.439Z,19.317017
2022-08-08T07:33:53.590Z,19.3573
2022-08-08T07:37:14.642Z,19.427795
2022-08-08T07:40:40.342Z,19.538574
2022-08-08T07:44:09.248Z,19.619141
2022-08-08T07:47:38.704Z,19.709778
2022-08-08T07:50:56.151Z,19.830627
2022-08-08T07:54:24.223Z,19.941406
2022-08-08T07:57:48.365Z,20.052185
2022-08-08T08:01:12.111Z,20.082397
2022-08-08T08:04:39.981Z,20.132751
2022-08-08T08:08:02.629Z,20.203247
2022-08-08T08:11:33.737Z,20.213318
2022-08-08T08:14:53.225Z,20.263672
2022-08-08T08:18:31.975Z,20.263672
2022-08-08T08:21:44.611Z,20.283813
2022-08-08T08:25:09.223Z,20.283813
2022-08-08T08:28:34.554Z,20.263672
2022-08-08T08:32:03.212Z,20.263672
2022-08-08T08:35:29.565Z,20.283813
2022-08-08T08:38:50.616Z,20.394592
2022-08-08T08:42:19.457Z,20.535583
2022-08-08T08:45:41.294Z,20.475159
2022-08-08T08:49:06.618Z,20.36438
2022-08-08T08:52:31.946Z,20.36438
2022-08-08T08:56:01.589Z,20.414734
2022-08-08T08:59:30.677Z,20.465088
2022-08-08T09:02:48.093Z,20.475159
2022-08-08T09:06:26.124Z,20.4953
2022-08-08T09:09:40.366Z,20.505371
2022-08-08T09:13:04.133Z,20.545654
2022-08-08T09:16:29.471Z,20.585938
2022-08-08T09:21:55.929Z,20.716858
2022-08-08T09:23:25.630Z,20.757141
2022-08-08T09:26:47.267Z,20.908203
2022-08-08T09:30:11.055Z,21.059265
2022-08-08T09:33:55.181Z,21.099548
2022-08-08T09:37:28.891Z,21.089478
2022-08-08T09:40:40.874Z,21.159973
2022-08-08T09:44:04.852Z,21.280823
2022-08-08T09:47:26.863Z,21.49231
2022-08-08T09:50:43.822Z,21.582947
2022-08-08T09:54:13.981Z,21.673584
2022-08-08T09:57:35.183Z,21.75415
2022-08-08T10:00:59.388Z,21.774292
2022-08-08T10:04:38.672Z,21.864929
2022-08-08T10:07:50.073Z,21.935425
2022-08-08T10:12:22.824Z,22.066345
2022-08-08T10:14:40.740Z,22.237549
2022-08-08T10:18:10.358Z,22.348328
2022-08-08T10:21:32.767Z,22.308044
2022-08-08T10:24:56.773Z,22.459106
2022-08-08T10:28:22.108Z,22.600098
2022-08-08T10:31:47.907Z,22.670593
2022-08-08T10:36:01.854Z,22.75116
2022-08-08T10:38:38.195Z,22.801514
2022-08-08T10:42:14.600Z,22.88208
2022-08-08T10:45:29.040Z,22.902222
2022-08-08T10:48:56.314Z,22.912292
2022-08-08T10:52:19.802Z,22.902222
2022-08-08T10:55:45.868Z,22.861938
2022-08-08T10:59:12.358Z,22.922363
2022-08-08T11:02:36.240Z,22.912292
2022-08-08T11:06:01.555Z,23.00293
2022-08-08T11:09:32.057Z,22.972717
2022-08-08T11:13:06.595Z,23.013
2022-08-08T11:16:32.740Z,23.13385
2022-08-08T11:19:46.401Z,23.164062
2022-08-08T11:23:09.909Z,23.043213
2022-08-08T11:26:38.250Z,23.043213
2022-08-08T11:30:18.771Z,23.103638
2022-08-08T11:33:51.055Z,23.153992
2022-08-08T11:36:52.647Z,23.204346
2022-08-08T11:40:18.004Z,23.274841
2022-08-08T11:43:43.335Z,23.284912
2022-08-08T11:47:12.677Z,23.315125
2022-08-08T11:50:34.350Z,23.375549
2022-08-08T11:54:01.379Z,23.38562
2022-08-08T11:57:27.470Z,23.425903
2022-08-08T12:00:49.970Z,23.325195
2022-08-08T12:04:15.282Z,23.305054
2022-08-08T12:07:40.593Z,23.415833
2022-08-08T12:11:05.927Z,23.355408
2022-08-08T12:14:31.241Z,23.425903
2022-08-08T12:17:56.568Z,23.456116
2022-08-08T12:21:21.930Z,23.456116
2022-08-08T12:24:48.512Z,23.456116
2022-08-08T12:28:15.303Z,23.38562
2022-08-08T12:31:38.897Z,23.415833
2022-08-08T12:35:05.066Z,23.456116
2022-08-08T12:38:30.607Z,23.38562
2022-08-08T12:41:57.649Z,23.375549
2022-08-08T12:45:20.183Z,23.425903
2022-08-08T12:48:54.900Z,23.50647
2022-08-08T12:52:14.289Z,23.597107
2022-08-08T12:55:50.223Z,23.677673
2022-08-08T12:59:00.613Z,23.677673
2022-08-08T13:02:28.191Z,23.627319
2022-08-08T13:06:04.446Z,23.627319
2022-08-08T13:09:16.629Z,23.657532
2022-08-08T13:12:46.793Z,23.536682
2022-08-08T13:16:07.363Z,23.546753
2022-08-08T13:19:41.310Z,23.466187
2022-08-08T13:26:24.626Z,23.657532
2022-08-08T13:29:48.888Z,23.576965
2022-08-08T13:33:14.264Z,23.607178
2022-08-08T13:36:39.679Z,23.566895
2022-08-08T13:40:05.020Z,23.627319
2022-08-08T13:43:30.415Z,23.677673
2022-08-08T13:46:55.789Z,23.657532
2022-08-08T13:50:34.132Z,23.607178
2022-08-08T13:53:53.085Z,23.647461
2022-08-08T13:57:12.647Z,23.647461
2022-08-08T14:00:37.291Z,23.778381
2022-08-08T14:04:02.745Z,23.798523
2022-08-08T14:07:29.774Z,23.748169
2022-08-08T14:10:53.464Z,23.697815
2022-08-08T14:14:20.780Z,23.728027
2022-08-08T14:17:57.514Z,23.748169
2022-08-08T14:21:12.943Z,23.717957
2022-08-08T14:24:34.940Z,23.697815
2022-08-08T14:28:01.368Z,23.657532
2022-08-08T15:08:53.141Z,23.355408
2022-08-08T15:12:13.222Z,23.38562
2022-08-08T15:16:02.307Z,23.415833
2022-08-08T15:19:23.637Z,23.38562
2022-08-08T15:22:47.851Z,23.325195
2022-08-08T15:26:13.436Z,23.38562
2022-08-08T15:29:38.960Z,23.355408
2022-08-08T15:33:04.529Z,23.345337
2022-08-08T15:36:30.092Z,23.284912
2022-08-08T15:39:55.567Z,23.305054
2022-08-08T15:43:35.474Z,23.224487
2022-08-08T15:46:50.456Z,23.153992
2022-08-08T15:50:20.389Z,23.174133
2022-08-08T15:53:40.704Z,23.2547
2022-08-08T15:57:03.265Z,23.274841
2022-08-08T16:00:28.800Z,23.234558
2022-08-08T16:03:54.319Z,23.234558
2022-08-08T16:07:19.903Z,23.13385
2022-08-08T16:13:06.436Z,23.153992
2022-08-08T16:14:13.299Z,23.093567
2022-08-08T16:17:39.056Z,23.043213
2022-08-08T16:21:03.633Z,23.023071
2022-08-08T16:24:28.640Z,23.073425
2022-08-08T16:27:56.853Z,23.093567
2022-08-08T16:31:19.379Z,23.053284
2022-08-08T16:34:44.765Z,22.972717
2022-08-08T16:38:12.791Z,22.861938
2022-08-08T16:41:35.537Z,22.851868
2022-08-08T16:45:00.998Z,22.861938
2022-08-08T16:48:26.622Z,22.88208
2022-08-08T16:54:58.390Z,22.851868
2022-08-08T16:55:24.753Z,22.831726
2022-08-08T16:58:42.729Z,22.771301
2022-08-08T17:02:12.511Z,22.700806
2022-08-08T17:05:36.418Z,22.700806
2022-08-08T17:08:58.677Z,22.670593
2022-08-08T17:12:28.500Z,22.620239
2022-08-08T17:15:52.457Z,22.569885
2022-08-08T17:19:14.760Z,22.519531
2022-08-08T17:22:42.397Z,22.469177
2022-08-08T17:26:06.005Z,22.449036
2022-08-08T17:29:33.612Z,22.348328
2022-08-08T17:33:43.869Z,22.267761
2022-08-08T17:36:29.459Z,22.207336
2022-08-08T17:40:05.367Z,22.146912
2022-08-08T17:43:12.314Z,22.086487
2022-08-08T17:46:37.643Z,22.046204
2022-08-08T17:50:03.384Z,21.975708
2022-08-08T17:53:31.288Z,21.975708
2022-08-08T17:56:53.627Z,21.915283
2022-08-08T18:00:19.881Z,21.864929
2022-08-08T18:03:45.221Z,21.834717
2022-08-08T18:08:01.330Z,21.794434
2022-08-08T18:10:35.866Z,21.713867
2022-08-08T18:14:01.201Z,21.683655
2022-08-08T18:17:28.407Z,21.613159
2022-08-08T18:20:54.613Z,21.562805
2022-08-08T18:24:19.798Z,21.50238
2022-08-08T18:27:43.247Z,21.441956
2022-08-08T18:31:07.860Z,21.381531
2022-08-08T18:34:33.345Z,21.311035
2022-08-08T18:37:58.496Z,21.190186
2022-08-08T18:41:45.769Z,21.069336
2022-08-08T18:44:53.127Z,20.978699
2022-08-08T18:48:18.095Z,20.888062
2022-08-08T18:51:53.802Z,20.837708
2022-08-08T18:55:40.084Z,20.787354
2022-08-08T18:59:07.758Z,20.716858
2022-08-08T19:02:48.279Z,20.656433
2022-08-08T19:06:06.043Z,20.565796
2022-08-08T19:09:48.556Z,20.475159
2022-08-08T19:12:56.707Z,20.394592
2022-08-08T19:16:22.043Z,20.324097
2022-08-08T19:20:02.417Z,20.233459
2022-08-08T19:23:12.688Z,19.99176
2022-08-08T19:26:37.980Z,19.73999
2022-08-08T19:30:03.287Z,19.558716
2022-08-08T19:33:39.793Z,19.437866
2022-08-08T19:36:55.172Z,19.397583
2022-08-08T19:40:21.893Z,19.317017
2022-08-08T19:43:56.806Z,19.276733
2022-08-08T19:47:10.043Z,19.206238
2022-08-08T19:50:35.416Z,19.155884
2022-08-08T19:54:00.737Z,19.10553
2022-08-08T19:57:26.149Z,19.035034
2022-08-08T20:00:53.141Z,18.914185
2022-08-08T20:04:16.782Z,18.85376
2022-08-08T20:08:27.391Z,18.813477
2022-08-08T20:11:07.317Z,18.662415
2022-08-08T20:14:35.820Z,18.330078
2022-08-08T20:17:57.946Z,18.09845
2022-08-08T20:21:25.192Z,17.967529
2022-08-08T20:24:48.562Z,17.917175
2022-08-08T20:28:18.843Z,17.85675
2022-08-08T20:31:47.503Z,17.816467
2022-08-08T20:35:04.456Z,17.786255
2022-08-08T20:38:31.974Z,17.745972
2022-08-08T20:41:55.027Z,17.705688
2022-08-08T20:45:54.458Z,17.554626
2022-08-08T20:48:45.679Z,17.413635
2022-08-08T20:52:10.989Z,17.363281
2022-08-08T20:55:42.275Z,17.262573
2022-08-08T20:59:01.617Z,17.141724
2022-08-08T21:02:27.000Z,17.071228
2022-08-08T21:05:59.247Z,17.061157
2022-08-08T21:09:17.549Z,17.041016
2022-08-08T21:12:44.395Z,17.061157
2022-08-08T21:16:18.345Z,16.980591
2022-08-08T21:19:34.163Z,16.889954
2022-08-08T21:22:58.768Z,16.809387
2022-08-08T21:26:27.138Z,16.748962
2022-08-08T21:30:03.190Z,16.658325
2022-08-08T21:33:14.731Z,16.567688
2022-08-08T21:36:40.028Z,16.446838
2022-08-08T21:40:05.544Z,16.305847
2022-08-08T21:43:31.255Z,16.205139
2022-08-08T21:48:03.217Z,16.09436
2022-08-08T21:50:21.225Z,16.054077
2022-08-08T21:54:20.023Z,16.054077
2022-08-08T21:57:11.808Z,16.013794
2022-08-08T22:00:37.407Z,15.943298
2022-08-08T22:04:02.346Z,15.903015
2022-08-08T22:07:34.530Z,15.923157
2022-08-08T22:10:54.009Z,15.84259
2022-08-08T22:14:18.077Z,15.751953
2022-08-08T22:17:45.376Z,15.681458
2022-08-08T22:21:10.919Z,15.651245
2022-08-08T22:24:33.834Z,15.671387
2022-08-08T22:28:03.220Z,15.691528
2022-08-08T22:31:24.420Z,15.691528
2022-08-08T22:34:50.933Z,15.681458
2022-08-08T22:38:17.423Z,15.681458
2022-08-08T22:41:40.141Z,15.651245
2022-08-08T22:45:09.369Z,15.671387
2022-08-08T22:48:30.642Z,15.671387
2022-08-08T22:51:55.877Z,15.59082
2022-08-08T22:55:21.132Z,15.540466
2022-08-08T22:58:46.433Z,15.469971
2022-08-08T23:02:12.627Z,15.429688
2022-08-08T23:05:38.640Z,15.359192
2022-08-08T23:09:02.181Z,15.308838
2022-08-08T23:12:28.215Z,15.278625
2022-08-08T23:16:37.373Z,15.228271
2022-08-08T23:19:17.906Z,15.248413
2022-08-08T23:22:43.193Z,15.157776
2022-08-08T23:26:08.430Z,15.097351
2022-08-08T23:29:33.672Z,15.067139
2022-08-08T23:32:58.921Z,14.976501
2022-08-08T23:36:24.248Z,14.95636
2022-08-08T23:39:55.267Z,14.95636
2022-08-08T23:43:14.630Z,14.946289
2022-08-08T23:48:59.117Z,14.936218
2022-08-08T23:50:05.639Z,14.936218
2022-08-08T23:53:55.754Z,14.906006
2022-08-08T23:56:55.618Z,14.946289
